Uthal Weather



Uthal's Current Weather

Temprature 33.779o overcast clouds

overcast clouds

Rain: 0 %

Min Temprature33.779o
Max Temprature33.779o
Humidity48
Wind Speed7.16 m/h
Sun Rise06:20:18
Sun Set18:35:38
Current Time: 18-Sep-2019 16:55:27
Lat/Lon: 25.81, 66.62




Uthal's Geo Location



Uthal's Weather Forecast

Time Overall Temp Min Temp Max Temp Humidity Wind Speed Rain
18-Sep-2019 (Wed)
17:00:00 overcast clouds 32.040 32.040 33.779 48 7.16 m/h 0 %
20:00:00 scattered clouds 28.420 28.420 29.727 60 4.68 m/h 0 %
23:00:00 few clouds 27.370 27.370 28.238 67 3.99 m/h 0 %
19-Sep-2019 (Thu)
02:00:00 clear sky 26.920 26.920 27.350 72 3.11 m/h 0 %
05:00:00 clear sky 26.550 26.550 26.550 76 2.17 m/h 0 %
08:00:00 clear sky 27.004 27.004 27.004 73 0.19 m/h 0 %
11:00:00 clear sky 31.450 31.450 31.450 52 1.68 m/h 0 %
14:00:00 overcast clouds 36.150 36.150 36.150 36 2.54 m/h 0 %
17:00:00 scattered clouds 35.650 35.650 35.650 41 7.65 m/h 0 %
20:00:00 clear sky 31.150 31.150 31.150 49 5.83 m/h 0 %
23:00:00 clear sky 29.350 29.350 29.350 52 3.03 m/h 0 %
20-Sep-2019 (Fri)
02:00:00 scattered clouds 28.950 28.950 28.950 54 1.73 m/h 0 %
05:00:00 few clouds 28.250 28.250 28.250 57 1.71 m/h 0 %
08:00:00 broken clouds 30.350 30.350 30.350 47 1.82 m/h 0 %
11:00:00 broken clouds 35.163 35.163 35.163 34 1.93 m/h 0 %
14:00:00 scattered clouds 39.450 39.450 39.450 23 2.66 m/h 0 %
17:00:00 few clouds 39.650 39.650 39.650 24 6.73 m/h 0 %
20:00:00 clear sky 34.150 34.150 34.150 42 5.53 m/h 0 %
23:00:00 clear sky 31.250 31.250 31.250 53 5.69 m/h 0 %
21-Sep-2019 (Sat)
02:00:00 clear sky 28.950 28.950 28.950 65 4.24 m/h 0 %
05:00:00 clear sky 28.686 28.686 28.686 66 0.72 m/h 0 %
08:00:00 clear sky 29.750 29.750 29.750 60 0.81 m/h 0 %
11:00:00 clear sky 35.663 35.663 35.663 36 2.15 m/h 0 %
14:00:00 clear sky 40.850 40.850 40.850 20 2.01 m/h 0 %
17:00:00 clear sky 36.950 36.950 36.950 34 8.41 m/h 0 %
20:00:00 clear sky 32.550 32.550 32.550 44 6 m/h 0 %
23:00:00 clear sky 31.063 31.063 31.063 53 4.65 m/h 0 %
22-Sep-2019 (Sun)
02:00:00 clear sky 29.543 29.543 29.543 62 1.76 m/h 0 %
05:00:00 clear sky 28.911 28.911 28.911 65 0.78 m/h 0 %
08:00:00 clear sky 30.565 30.565 30.565 55 0.72 m/h 0 %
11:00:00 clear sky 35.500 35.500 35.500 35 1.51 m/h 0 %
14:00:00 clear sky 40.250 40.250 40.250 20 2.03 m/h 0 %
17:00:00 clear sky 37.750 37.750 37.750 32 7.38 m/h 0 %
20:00:00 clear sky 32.896 32.896 32.896 47 4.28 m/h 0 %
23:00:00 clear sky 31.850 31.850 31.850 51 3.77 m/h 0 %
23-Sep-2019 (Mon)
02:00:00 clear sky 30.650 30.650 30.650 57 1.41 m/h 0 %
05:00:00 clear sky 29.450 29.450 29.450 63 1.42 m/h 0 %
08:00:00 clear sky 30.150 30.150 30.150 60 0.78 m/h 0 %
11:00:00 clear sky 35.750 35.750 35.750 37 1.1 m/h 0 %
14:00:00 clear sky 40.750 40.750 40.750 23 4.68 m/h 0 %

Famous Cities (61)